Estelline, South Dakota
Current Conditions -  °F | °C
As of 3:53 PM on Sunday 23 Nov 2014 (Local Time) from KATY Reporting Station
Overcast Overcast  
Wind Chill: 23°   Ceiling: 2700
Heat Index: 34°   Visibility: 10mi
Dew Point: 26°   Wind: 18mph
Humidity: 73%   Direction: 310°NW
Pressure: 29.49"   Gusts: 25mph
Location:  44.57°N, 96.9°W
Report Text: KATY 232153Z AUTO 31016G22KT 10SM BKN027 OVC032 01/M03 A2949 RMK AO2 SLP000 T00111033
Loading
Personal Weather Stations






























Interactive Weather Map New forecast layout! Learn more

10-Day Weather Forecast

Advertisements
Track Severe Weather on mobile